Time;durP1;ratioP1;P1;durP2;ratioP2;P2;SDS_P1;SDS_P2;PMS_P1;PMS_P2;Temp;Humidity;BMP_temperature;BMP_pressure;BME280_temperature;BME280_humidity;BME280_pressure;Samples;Min_cycle;Max_cycle;Signal;HPM_P1;HPM_P2
2023/04/27 00:03:04;;;;;;;5.43;2.30;;;;;;;7.65;71.20;99925.28;12200589;19;20007;-78
2023/04/27 00:07:07;;;;;;;;;;;;;;;7.57;73.04;99930.22;12196495;19;20003;-78
2023/04/27 00:11:09;;;;;;;7.88;2.05;;;;;;;7.53;73.31;99918.88;12177450;19;19938;-78
2023/04/27 00:15:11;;;;;;;5.22;2.33;;;;;;;7.45;73.54;99914.50;12198146;19;20586;-78
2023/04/27 00:19:14;;;;;;;4.57;2.47;;;;;;;7.39;73.77;99912.69;12194005;19;20010;-78
2023/04/27 00:23:16;;;;;;;7.68;2.42;;;;;;;7.34;73.73;99918.00;12181237;19;20519;-79
2023/04/27 00:27:17;;;;;;;4.68;2.08;;;;;;;7.30;74.84;99914.03;12201340;19;20424;-78
2023/04/27 00:31:19;;;;;;;5.45;2.13;;;;;;;7.23;75.27;99905.06;12195264;19;20074;-78
2023/04/27 00:35:23;;;;;;;6.78;2.33;;;;;;;7.14;75.31;99896.28;12175197;19;20017;-78
2023/04/27 00:39:25;;;;;;;5.47;2.13;;;;;;;7.02;75.21;99892.56;12190925;19;20047;-77
2023/04/27 00:43:26;;;;;;;5.65;2.50;;;;;;;6.90;75.59;99897.13;12198201;19;20002;-78
2023/04/27 00:47:29;;;;;;;5.80;1.95;;;;;;;6.79;75.46;99899.53;12171510;19;20007;-77
2023/04/27 00:51:31;;;;;;;3.75;2.10;;;;;;;6.69;74.98;99901.91;12192172;19;20099;-78
2023/04/27 00:55:33;;;;;;;3.97;2.40;;;;;;;6.61;75.79;99899.47;12210119;19;20014;-78
2023/04/27 00:59:36;;;;;;;6.30;2.20;;;;;;;6.52;76.49;99896.16;12186554;19;20014;-78
2023/04/27 01:03:37;;;;;;;7.00;1.88;;;;;;;6.46;76.09;99902.50;12210668;19;20007;-78
2023/04/27 01:07:41;;;;;;;5.37;1.97;;;;;;;6.43;75.74;99902.13;12189051;19;20021;-78
2023/04/27 01:11:43;;;;;;;5.47;1.77;;;;;;;6.38;75.39;99909.06;12206449;19;20038;-78
2023/04/27 01:15:44;;;;;;;4.60;2.00;;;;;;;6.30;75.68;99914.81;12209521;19;20090;-78
2023/04/27 01:19:46;;;;;;;3.58;1.75;;;;;;;6.27;77.05;99915.25;12185423;19;20035;-78
2023/04/27 01:23:51;;;;;;;4.50;2.13;;;;;;;6.21;77.83;99921.59;12207995;19;20563;-78
2023/04/27 01:27:53;;;;;;;3.45;2.10;;;;;;;6.11;77.11;99921.25;12204363;19;20081;-78
2023/04/27 01:31:55;;;;;;;2.80;2.07;;;;;;;6.08;78.45;99921.69;12177893;19;20023;-79
2023/04/27 01:35:57;;;;;;;7.38;2.47;;;;;;;6.08;80.09;99932.63;12210785;19;20023;-77
2023/04/27 01:40:04;;;;;;;4.07;2.30;;;;;;;6.00;80.56;99930.97;12208532;19;20048;-79
2023/04/27 01:44:06;;;;;;;6.70;2.20;;;;;;;5.85;79.62;99925.72;12190411;19;20002;-78
2023/04/27 01:48:08;;;;;;;4.20;1.98;;;;;;;5.74;82.07;99931.88;12206166;19;20002;-77
2023/04/27 01:52:09;;;;;;;5.45;1.88;;;;;;;5.66;84.31;99940.31;12206190;19;20009;-78
2023/04/27 01:56:11;;;;;;;6.57;2.13;;;;;;;5.57;84.65;99950.63;12177679;19;20020;-77
2023/04/27 02:00:13;;;;;;;5.70;2.03;;;;;;;5.47;85.49;99937.44;12180663;19;20527;-78
2023/04/27 02:04:21;;;;;;;8.20;2.17;;;;;;;5.39;85.88;99940.38;12192941;19;20374;-78
2023/04/27 02:08:23;;;;;;;5.90;2.17;;;;;;;5.34;85.91;99942.06;12171123;19;20031;-78
2023/04/27 02:12:25;;;;;;;4.68;2.17;;;;;;;5.25;87.71;99947.75;12201361;19;20126;-77
2023/04/27 02:16:27;;;;;;;4.90;2.30;;;;;;;5.18;88.64;99944.19;12196584;19;20007;-78
2023/04/27 02:20:32;;;;;;;4.77;2.33;;;;;;;5.15;89.41;99944.63;12172887;19;20820;-77
2023/04/27 02:24:35;;;;;;;5.53;2.22;;;;;;;5.09;89.33;99947.34;12194808;19;20015;-78
2023/04/27 02:28:37;;;;;;;4.38;2.13;;;;;;;5.04;89.68;99958.91;12171403;19;20038;-78
2023/04/27 02:32:40;;;;;;;5.85;2.30;;;;;;;5.00;90.58;99953.03;12195153;19;20010;-77
2023/04/27 02:36:42;;;;;;;3.95;2.58;;;;;;;4.98;90.98;99955.13;12192585;19;20007;-77
2023/04/27 02:40:43;;;;;;;5.13;2.20;;;;;;;4.97;91.90;99958.91;12172314;19;20011;-78
2023/04/27 02:44:45;;;;;;;9.65;2.15;;;;;;;4.93;92.16;99957.63;12200043;19;20669;-78
2023/04/27 02:48:47;;;;;;;4.07;2.00;;;;;;;4.86;91.97;99962.25;12198843;19;20010;-78
2023/04/27 02:52:49;;;;;;;4.45;2.38;;;;;;;4.78;92.02;99948.78;12179880;19;20059;-78
2023/04/27 02:56:51;;;;;;;3.42;2.13;;;;;;;4.70;93.52;99959.91;12199580;19;20034;-78
2023/04/27 03:00:56;;;;;;;6.78;2.05;;;;;;;4.70;93.96;99954.44;12197963;19;20010;-78
2023/04/27 03:04:58;;;;;;;4.00;2.30;;;;;;;4.67;95.22;99960.31;12180077;19;20723;-78
2023/04/27 03:09:00;;;;;;;5.00;2.35;;;;;;;4.62;95.88;99958.25;12193788;19;20018;-78
2023/04/27 03:13:02;;;;;;;3.75;2.20;;;;;;;4.60;95.69;99951.31;12198013;19;20366;-78
2023/04/27 03:17:04;;;;;;;5.13;2.38;;;;;;;4.60;95.78;99948.56;12174702;19;20010;-78
2023/04/27 03:21:10;;;;;;;4.93;2.75;;;;;;;4.62;94.86;99944.59;12194350;19;20038;-78
2023/04/27 03:25:11;;;;;;;4.68;1.85;;;;;;;4.64;94.70;99947.09;12197105;19;20014;-78
2023/04/27 03:29:13;;;;;;;3.63;1.80;;;;;;;4.68;93.43;99948.38;12169297;19;20002;-78
2023/04/27 03:33:17;;;;;;;7.73;1.53;;;;;;;4.68;92.24;99948.38;12192668;19;20007;-78
2023/04/27 03:37:18;;;;;;;6.00;2.10;;;;;;;4.70;92.13;99952.59;12191788;19;20014;-78
2023/04/27 03:41:20;;;;;;;3.40;2.03;;;;;;;4.76;92.75;99942.72;12170717;19;20573;-78
2023/04/27 03:45:23;;;;;;;5.75;2.75;;;;;;;4.79;92.74;99940.41;12190326;19;20014;-78
2023/04/27 03:49:25;;;;;;;5.22;2.00;;;;;;;4.82;92.26;99933.69;12191466;19;20018;-78
2023/04/27 03:53:27;;;;;;;4.80;2.42;;;;;;;4.87;91.99;99927.59;12171727;19;20019;-78
2023/04/27 03:57:29;;;;;;;6.63;2.35;;;;;;;4.96;91.23;99937.25;12191084;19;20014;-78
2023/04/27 04:01:32;;;;;;;;;;;;;;;5.06;91.60;99939.56;12192787;19;20011;-77
2023/04/27 04:05:34;;;;;;;4.30;2.40;;;;;;;5.19;90.18;99945.84;12171438;19;19931;-78
2023/04/27 04:09:36;;;;;;;9.75;2.75;;;;;;;5.31;89.89;99948.78;12191168;19;21239;-78
2023/04/27 04:13:40;;;;;;;4.85;2.60;;;;;;;5.43;90.47;99951.72;12170870;19;20019;-78
2023/04/27 04:17:42;;;;;;;8.45;2.97;;;;;;;5.59;90.30;99955.88;12188811;19;20030;-78
2023/04/27 04:21:44;;;;;;;4.43;2.42;;;;;;;5.72;89.67;99951.22;12189876;19;20483;-77
2023/04/27 04:25:47;;;;;;;8.57;2.33;;;;;;;5.89;89.81;99946.13;12166720;19;20006;-78
2023/04/27 04:29:49;;;;;;;6.30;2.70;;;;;;;6.03;88.83;99941.47;12191466;19;20011;-78
2023/04/27 04:33:51;;;;;;;7.20;2.55;;;;;;;6.17;88.44;99942.25;12189479;19;20015;-78
2023/04/27 04:37:52;;;;;;;5.57;2.38;;;;;;;6.29;87.87;99937.78;12164869;19;19999;-77
2023/04/27 04:41:54;;;;;;;5.32;2.38;;;;;;;6.44;87.00;99942.94;12188754;19;20043;-78
2023/04/27 04:46:00;;;;;;;5.85;2.22;;;;;;;6.55;86.28;99925.00;12188822;19;20760;-78
2023/04/27 04:50:03;;;;;;;9.10;2.45;;;;;;;6.68;85.26;99932.28;12168879;19;20024;-78
2023/04/27 04:54:06;;;;;;;4.10;2.20;;;;;;;6.80;84.70;99939.53;12190741;19;21122;-78
2023/04/27 04:58:07;;;;;;;5.72;2.20;;;;;;;6.92;84.26;99941.56;12188418;19;20011;-77
2023/04/27 05:02:09;;;;;;;10.87;3.13;;;;;;;7.04;83.37;99948.00;12167151;19;20526;-78
2023/04/27 05:06:13;;;;;;;7.13;2.28;;;;;;;7.09;81.49;99942.69;12183543;19;20002;-78
2023/04/27 05:10:15;;;;;;;5.25;2.20;;;;;;;7.06;80.53;99951.38;12189580;19;20011;-78
2023/04/27 05:14:17;;;;;;;5.67;2.10;;;;;;;7.10;79.39;99958.06;12177796;19;20009;-78
2023/04/27 05:18:19;;;;;;;5.03;2.20;;;;;;;7.18;78.65;99959.69;12196788;19;20544;-78
2023/04/27 05:22:21;;;;;;;8.57;3.37;;;;;;;7.16;79.05;99962.66;12193250;19;20023;-79
2023/04/27 05:26:24;;;;;;;;;;;;;;;7.08;79.26;99965.69;12171125;19;20133;-80
2023/04/27 05:30:26;;;;;;;5.60;2.97;;;;;;;7.08;80.93;99985.69;12188760;19;19942;-78
2023/04/27 05:34:28;;;;;;;13.27;8.77;;;;;;;7.14;82.03;99974.88;12193563;19;20038;-79
2023/04/27 05:38:30;;;;;;;9.32;5.13;;;;;;;7.26;82.91;99987.66;12164431;19;20046;-78
2023/04/27 05:42:36;;;;;;;12.48;5.15;;;;;;;7.35;82.00;99980.00;12196035;19;20024;-78
2023/04/27 05:46:38;;;;;;;5.97;3.40;;;;;;;7.45;80.84;99983.06;12168846;19;20504;-78
2023/04/27 05:50:40;;;;;;;7.05;3.08;;;;;;;7.50;80.49;99990.63;12198999;19;20007;-78
2023/04/27 05:54:47;;;;;;;6.57;3.00;;;;;;;7.53;81.20;99990.16;12185088;19;20022;-78
2023/04/27 05:58:49;;;;;;;7.70;3.08;;;;;;;7.52;80.19;99985.72;12178182;19;20007;-78
2023/04/27 06:02:54;;;;;;;10.50;2.33;;;;;;;7.54;78.43;99991.84;12200554;19;20029;-78
2023/04/27 06:07:02;;;;;;;6.95;2.80;;;;;;;7.51;77.44;99997.78;12197028;19;22493;-78
2023/04/27 06:11:06;;;;;;;6.70;2.47;;;;;;;7.54;77.34;100009.13;12180384;19;20022;-78
2023/04/27 06:15:08;;;;;;;4.38;2.42;;;;;;;7.62;76.94;100009.91;12204194;19;20333;-78
2023/04/27 06:19:12;;;;;;;8.30;2.80;;;;;;;7.69;74.92;100013.44;12199269;19;20018;-78
2023/04/27 06:23:16;;;;;;;7.07;2.47;;;;;;;7.79;73.49;100018.38;12184044;19;20011;-79
2023/04/27 06:27:20;;;;;;;7.07;2.80;;;;;;;7.81;71.84;100011.59;12201479;19;20030;-77
2023/04/27 06:31:22;;;;;;;7.32;3.13;;;;;;;7.87;71.18;100021.66;12199845;19;20010;-78
2023/04/27 06:35:30;;;;;;;7.88;3.17;;;;;;;8.10;70.28;100026.50;12178650;19;20010;-78
2023/04/27 06:39:35;;;;;;;6.38;2.55;;;;;;;8.49;66.96;100027.13;12201091;19;20006;-78
2023/04/27 06:43:38;;;;;;;4.20;1.95;;;;;;;8.60;65.95;100029.09;12183266;19;20479;-78
2023/04/27 06:47:43;;;;;;;5.50;2.88;;;;;;;8.59;66.50;100032.88;12203339;19;20018;-78
2023/04/27 06:51:47;;;;;;;7.32;3.10;;;;;;;8.66;67.12;100032.81;12200003;19;20014;-78
2023/04/27 06:55:50;;;;;;;5.00;2.58;;;;;;;8.82;66.32;100043.16;12179542;19;20010;-77
2023/04/27 06:59:52;;;;;;;8.00;2.60;;;;;;;8.95;65.89;100035.78;12203671;19;20010;-78
2023/04/27 07:03:56;;;;;;;8.15;2.47;;;;;;;9.16;65.62;100039.91;12197371;19;20015;-78
2023/04/27 07:07:58;;;;;;;5.28;2.42;;;;;;;9.46;65.13;100040.72;12171714;19;20003;-78
2023/04/27 07:12:08;;;;;;;8.13;2.70;;;;;;;9.83;62.53;100037.75;12197595;19;20011;-78
2023/04/27 07:16:14;;;;;;;8.07;2.75;;;;;;;10.33;61.31;100039.16;12196777;19;20034;-77
2023/04/27 07:20:20;;;;;;;7.03;3.17;;;;;;;10.64;58.22;100037.88;12179644;19;20023;-78
2023/04/27 07:24:23;;;;;;;4.53;2.58;;;;;;;10.91;58.52;100044.47;12196339;19;20026;-77
2023/04/27 07:28:27;;;;;;;5.22;2.38;;;;;;;11.27;56.92;100036.00;12197965;19;20006;-77
2023/04/27 07:32:30;;;;;;;8.00;2.20;;;;;;;11.61;54.97;100043.25;12174694;19;20853;-77
2023/04/27 07:36:36;;;;;;;6.07;2.33;;;;;;;11.99;54.37;100043.59;12198484;19;20017;-78
2023/04/27 07:40:39;;;;;;;5.70;2.90;;;;;;;12.25;53.03;100040.06;12169907;19;20014;-77
2023/04/27 07:44:42;;;;;;;8.55;2.70;;;;;;;12.44;53.32;100034.25;12197870;19;20014;-77
2023/04/27 07:48:48;;;;;;;4.57;2.58;;;;;;;12.50;51.80;100036.00;12195153;19;20010;-78
2023/04/27 07:52:53;;;;;;;8.55;2.28;;;;;;;12.69;51.72;100031.78;12177215;19;20034;-77
2023/04/27 07:56:58;;;;;;;6.68;2.47;;;;;;;12.80;50.39;100031.94;12193013;19;20014;-78
2023/04/27 08:01:00;;;;;;;7.75;2.55;;;;;;;12.94;49.90;100028.50;12196216;19;20059;-78
2023/04/27 08:05:09;;;;;;;6.07;2.10;;;;;;;12.90;48.82;100026.50;12165705;19;20094;-77
2023/04/27 08:09:12;;;;;;;4.43;2.72;;;;;;;13.06;48.60;100033.00;12190453;19;20014;-77
2023/04/27 08:13:16;;;;;;;7.50;2.33;;;;;;;13.09;47.80;100033.34;12193122;19;20010;-77
2023/04/27 08:17:20;;;;;;;10.90;3.28;;;;;;;13.03;48.55;100031.63;12172444;19;20014;-77
2023/04/27 08:21:23;;;;;;;5.93;2.42;;;;;;;13.15;46.92;100026.78;12191837;19;20035;-78
2023/04/27 08:25:27;;;;;;;8.90;2.53;;;;;;;13.18;47.95;100017.13;12195961;19;20437;-77
2023/04/27 08:29:30;;;;;;;5.75;2.42;;;;;;;13.40;47.63;100019.84;12171432;19;20020;-78
2023/04/27 08:33:36;;;;;;;8.25;2.35;;;;;;;13.50;47.08;100028.22;12194215;19;20011;-78
2023/04/27 08:37:39;;;;;;;4.15;2.17;;;;;;;13.66;46.77;100016.19;12167967;19;20002;-77
2023/04/27 08:41:42;;;;;;;;;;;;;;;13.63;45.62;100019.47;12194137;19;20011;-77
2023/04/27 08:45:55;;;;;;;4.97;2.40;;;;;;;13.89;45.89;100016.88;12191704;19;19981;-78
2023/04/27 08:49:57;;;;;;;5.75;2.40;;;;;;;14.20;45.69;100011.53;12172539;19;20254;-78
2023/04/27 08:54:04;;;;;;;5.55;2.50;;;;;;;14.64;44.62;100017.59;12190480;19;20015;-77
2023/04/27 08:58:07;;;;;;;6.18;2.63;;;;;;;14.61;43.91;100017.31;12191898;19;20460;-78
2023/04/27 09:02:19;;;;;;;;;;;;;;;14.68;44.79;100021.47;12168898;19;20007;-77
2023/04/27 09:06:30;;;;;;;;;;;;;;;14.63;44.20;100017.84;12187307;19;19919;-77
2023/04/27 09:10:48;;;;;;;7.45;2.30;;;;;;;14.83;44.14;100023.47;12190947;19;19934;-77
2023/04/27 09:15:02;;;;;;;6.85;2.00;;;;;;;15.08;42.87;100021.84;12177837;19;20007;-78
2023/04/27 09:19:06;;;;;;;5.72;2.42;;;;;;;15.41;43.38;100024.13;12204040;19;20061;-77
2023/04/27 09:23:25;;;;;;;6.88;2.55;;;;;;;15.50;41.33;100011.38;12183398;19;20358;-78
2023/04/27 09:27:27;;;;;;;6.53;2.05;;;;;;;15.41;40.38;100001.94;12202661;19;20014;-78
2023/04/27 09:31:34;;;;;;;8.68;3.13;;;;;;;15.52;40.45;99999.13;12206289;19;20007;-77
2023/04/27 09:35:36;;;;;;;4.90;2.20;;;;;;;15.60;40.76;100002.19;12179384;19;20648;-78
2023/04/27 09:39:40;;;;;;;5.30;2.10;;;;;;;15.65;39.64;99985.53;12200681;19;20018;-77
2023/04/27 09:43:45;;;;;;;4.63;2.45;;;;;;;15.67;40.74;99986.09;12180405;19;20062;-77
2023/04/27 09:47:47;;;;;;;6.20;2.55;;;;;;;15.84;39.44;99994.13;12200441;19;20007;-78
2023/04/27 09:51:50;;;;;;;7.43;2.90;;;;;;;16.14;40.08;99984.91;12203699;19;20106;-77
2023/04/27 09:56:12;;;;;;;7.70;2.60;;;;;;;16.31;38.53;99981.78;12179333;19;20023;-78
2023/04/27 10:00:45;;;;;;;7.10;2.33;;;;;;;16.30;38.55;99984.84;12198656;19;20393;-77
2023/04/27 10:05:26;;;;;;;11.77;3.20;;;;;;;16.43;38.72;99969.50;12176891;19;20019;-77
2023/04/27 10:09:39;;;;;;;9.55;2.95;;;;;;;16.68;38.65;99977.72;12184513;19;20017;-77
2023/04/27 10:13:54;;;;;;;7.35;2.80;;;;;;;16.92;38.11;99977.06;12175796;19;20372;-77
2023/04/27 10:18:04;;;;;;;4.93;2.58;;;;;;;17.00;37.64;99979.25;12192176;19;20002;-77
2023/04/27 10:22:08;;;;;;;4.90;2.30;;;;;;;17.24;37.61;99973.78;12195196;19;20015;-77
2023/04/27 10:26:11;;;;;;;6.47;2.80;;;;;;;17.63;37.84;99976.50;12170121;19;20036;-77
2023/04/27 10:30:19;;;;;;;11.98;2.70;;;;;;;18.06;37.10;99968.31;12198328;19;20014;-77
2023/04/27 10:34:26;;;;;;;5.22;2.70;;;;;;;18.42;36.34;99971.50;12194115;19;20014;-77
2023/04/27 10:38:32;;;;;;;9.63;2.90;;;;;;;18.80;34.66;99965.16;12171275;19;20014;-77
2023/04/27 10:42:34;;;;;;;7.30;3.30;;;;;;;18.71;34.03;99969.72;12192175;19;20031;-77
2023/04/27 10:46:49;;;;;;;6.95;2.90;;;;;;;19.13;34.48;99968.91;12175352;19;20018;-77
2023/04/27 10:50:53;;;;;;;6.85;3.17;;;;;;;19.48;34.75;99959.09;12200928;19;20054;-77
2023/04/27 10:54:57;;;;;;;5.70;3.30;;;;;;;19.47;33.87;99956.59;12195628;19;20094;-77
2023/04/27 10:59:02;;;;;;;10.10;3.45;;;;;;;19.49;33.62;99949.56;12168876;19;20011;-76
2023/04/27 11:03:22;;;;;;;7.65;3.03;;;;;;;19.70;33.76;99950.06;12189660;19;20047;-77
2023/04/27 11:07:27;;;;;;;5.07;2.70;;;;;;;19.76;33.69;99951.63;12187779;19;21767;-77
2023/04/27 11:11:33;;;;;;;7.95;3.30;;;;;;;19.87;32.16;99946.69;12173416;19;20007;-77
2023/04/27 11:15:54;;;;;;;6.72;2.70;;;;;;;19.92;32.36;99945.75;12201938;19;20014;-77
2023/04/27 11:19:58;;;;;;;5.88;3.22;;;;;;;19.97;32.62;99940.06;12181334;19;20014;-78
2023/04/27 11:24:05;;;;;;;10.37;3.17;;;;;;;19.86;31.53;99936.63;12195562;19;20007;-78
2023/04/27 11:28:19;;;;;;;7.78;3.28;;;;;;;20.04;31.08;99935.72;12198458;19;20013;-78
2023/04/27 11:32:24;;;;;;;15.73;3.35;;;;;;;20.09;31.79;99936.75;12178384;19;21384;-77
2023/04/27 11:36:28;;;;;;;6.28;3.28;;;;;;;19.99;32.81;99935.00;12198784;19;20026;-78
2023/04/27 11:40:34;;;;;;;10.30;3.60;;;;;;;20.40;31.33;99925.75;12194049;19;20130;-78
2023/04/27 11:44:39;;;;;;;10.95;3.90;;;;;;;20.57;31.83;99934.38;12173745;19;20006;-77
2023/04/27 11:48:43;;;;;;;9.88;3.83;;;;;;;20.93;32.42;99925.97;12196633;19;20006;-78
2023/04/27 11:52:48;;;;;;;7.13;3.65;;;;;;;21.68;31.89;99917.16;12177786;19;20015;-78
2023/04/27 11:56:50;;;;;;;11.70;3.40;;;;;;;21.94;30.81;99922.88;12199874;19;20020;-79
2023/04/27 12:00:56;;;;;;;7.88;3.38;;;;;;;22.07;30.85;99916.34;12201144;19;20035;-78
2023/04/27 12:05:00;;;;;;;5.85;2.83;;;;;;;22.33;30.47;99912.81;12179272;19;20025;-78
2023/04/27 12:09:04;;;;;;;8.13;3.80;;;;;;;22.69;29.18;99902.16;12194268;19;20364;-78
2023/04/27 12:13:13;;;;;;;7.68;3.50;;;;;;;22.54;29.75;99902.63;12197722;19;20010;-79
2023/04/27 12:17:18;;;;;;;8.48;3.10;;;;;;;22.60;29.33;99897.69;12179874;19;20018;-78
2023/04/27 12:21:21;;;;;;;6.07;3.42;;;;;;;22.58;27.38;99892.41;12192589;19;20010;-79
2023/04/27 12:25:25;;;;;;;5.15;3.00;;;;;;;22.81;28.59;99881.84;12200673;19;20015;-78
2023/04/27 12:29:26;;;;;;;6.85;2.75;;;;;;;23.31;27.03;99877.72;12176675;19;20034;-78
2023/04/27 12:33:31;;;;;;;5.47;2.55;;;;;;;23.92;27.13;99871.94;12194222;19;20888;-79
2023/04/27 12:37:33;;;;;;;7.22;2.70;;;;;;;24.34;27.01;99872.88;12196650;19;20007;-78
2023/04/27 12:41:40;;;;;;;5.40;2.55;;;;;;;25.22;26.06;99862.59;12173642;19;20018;-78
2023/04/27 12:45:43;;;;;;;7.15;3.28;;;;;;;25.32;25.26;99869.81;12199258;19;20027;-78
2023/04/27 12:49:46;;;;;;;6.45;2.00;;;;;;;25.28;24.14;99864.03;12181706;19;20003;-78
2023/04/27 12:53:49;;;;;;;5.05;1.77;;;;;;;25.30;24.35;99866.50;12210597;19;20010;-79
2023/04/27 12:57:56;;;;;;;2.53;1.40;;;;;;;25.42;25.02;99866.53;12214932;19;20027;-79
2023/04/27 13:02:02;;;;;;;6.43;1.80;;;;;;;25.97;24.46;99859.63;12189617;19;20011;-79
2023/04/27 13:06:07;;;;;;;5.18;2.35;;;;;;;26.25;24.31;99858.91;12217623;19;20015;-79
2023/04/27 13:10:10;;;;;;;9.98;2.75;;;;;;;26.41;23.21;99859.81;12205177;19;20014;-79
2023/04/27 13:14:14;;;;;;;5.72;2.45;;;;;;;26.45;23.83;99849.47;12194320;19;20453;-79
2023/04/27 13:18:19;;;;;;;5.93;2.47;;;;;;;26.30;23.81;99845.38;12213309;19;20014;-79
2023/04/27 13:22:23;;;;;;;7.32;2.67;;;;;;;25.96;24.19;99848.66;12214263;19;20010;-79
2023/04/27 13:26:27;;;;;;;5.20;2.50;;;;;;;25.69;24.60;99842.50;12194492;19;20340;-79
2023/04/27 13:30:31;;;;;;;9.00;2.40;;;;;;;25.35;24.88;99841.75;12209665;19;20014;-79
2023/04/27 13:34:35;;;;;;;7.25;2.55;;;;;;;25.04;24.82;99836.53;12195117;19;21422;-79
2023/04/27 13:38:38;;;;;;;6.82;2.10;;;;;;;25.33;24.99;99835.63;12212706;19;20181;-79
2023/04/27 13:42:43;;;;;;;5.35;1.92;;;;;;;26.22;24.29;99842.66;12212367;19;20034;-79
2023/04/27 13:46:47;;;;;;;5.30;1.98;;;;;;;26.37;24.41;99845.59;12193423;19;20021;-78
2023/04/27 13:50:50;;;;;;;4.40;2.08;;;;;;;26.54;23.42;99841.72;12210744;19;20007;-79
2023/04/27 13:54:51;;;;;;;4.55;2.33;;;;;;;27.00;23.41;99847.09;12211872;19;20038;-79
2023/04/27 13:58:55;;;;;;;3.00;1.80;;;;;;;26.87;23.39;99851.97;12189294;19;20004;-79
2023/04/27 14:03:00;;;;;;;5.35;1.92;;;;;;;27.16;22.81;99845.19;12205238;19;20544;-79
2023/04/27 14:07:05;;;;;;;4.65;1.80;;;;;;;27.13;22.86;99840.22;12211585;19;20393;-80
2023/04/27 14:11:11;;;;;;;3.05;1.65;;;;;;;26.87;23.07;99842.69;12184012;19;20452;-79
2023/04/27 14:15:14;;;;;;;4.13;1.80;;;;;;;26.48;23.33;99842.28;12213459;19;20019;-79
2023/04/27 14:19:21;;;;;;;5.30;2.28;;;;;;;25.13;24.39;99845.75;12214220;19;20022;-78
2023/04/27 14:23:25;;;;;;;6.35;1.90;;;;;;;24.17;25.49;99847.63;12194912;19;20390;-79
2023/04/27 14:27:27;;;;;;;4.05;1.70;;;;;;;23.51;25.78;99846.06;12222252;19;20014;-78
2023/04/27 14:31:30;;;;;;;2.05;1.20;;;;;;;22.81;27.29;99855.72;12217332;19;20006;-79
2023/04/27 14:35:34;;;;;;;4.45;1.65;;;;;;;22.15;27.47;99851.00;12193674;19;20021;-78
2023/04/27 14:39:40;;;;;;;4.68;1.67;;;;;;;21.72;27.95;99843.28;12216301;19;20014;-78
2023/04/27 14:43:47;;;;;;;4.05;1.70;;;;;;;21.42;28.63;99849.69;12186604;19;20014;-78
2023/04/27 14:47:52;;;;;;;5.63;1.95;;;;;;;22.00;28.77;99845.84;12212531;19;20010;-78
2023/04/27 14:51:57;;;;;;;4.95;2.20;;;;;;;22.11;28.10;99847.19;12219278;19;20006;-79
2023/04/27 14:56:00;;;;;;;4.40;1.63;;;;;;;21.28;29.10;99846.97;12187793;19;20019;-78
2023/04/27 15:00:08;;;;;;;2.75;1.48;;;;;;;20.70;29.77;99849.53;12211002;19;20508;-78
2023/04/27 15:04:12;;;;;;;3.78;1.70;;;;;;;20.32;30.87;99851.78;12211532;19;20022;-78
2023/04/27 15:08:15;;;;;;;2.75;1.50;;;;;;;20.11;30.67;99853.34;12183949;19;20023;-78
2023/04/27 15:12:19;;;;;;;4.55;1.70;;;;;;;20.02;30.84;99854.09;12198645;19;20018;-77
2023/04/27 15:16:23;;;;;;;2.78;1.48;;;;;;;19.75;31.05;99845.69;12208582;19;20043;-81
2023/04/27 15:20:27;;;;;;;6.75;1.90;;;;;;;19.47;31.92;99834.47;12182221;19;20007;-78
2023/04/27 15:24:30;;;;;;;3.90;1.70;;;;;;;19.32;31.99;99840.34;12209908;19;20006;-78
2023/04/27 15:28:35;;;;;;;5.60;1.70;;;;;;;19.04;31.84;99840.28;12207589;19;20010;-77
2023/04/27 15:32:37;;;;;;;3.75;1.45;;;;;;;19.21;31.88;99824.91;12191337;19;20410;-78
2023/04/27 15:36:41;;;;;;;3.67;1.45;;;;;;;19.59;31.51;99815.22;12212429;19;20026;-78
2023/04/27 15:40:44;;;;;;;;;;;;;;;19.74;32.19;99813.28;12186057;19;20362;-77
2023/04/27 15:44:46;;;;;;;6.00;1.55;;;;;;;19.69;31.97;99807.78;12204086;19;19922;-78
2023/04/27 15:48:49;;;;;;;4.78;1.45;;;;;;;19.29;32.03;99790.66;12200285;19;20032;-78
2023/04/27 15:52:52;;;;;;;4.00;1.42;;;;;;;19.02;32.88;99789.47;12177992;19;20015;-79
2023/04/27 15:56:56;;;;;;;2.50;1.38;;;;;;;18.82;32.95;99782.28;12197294;19;20014;-79
2023/04/27 16:00:59;;;;;;;4.88;1.70;;;;;;;18.57;33.40;99788.28;12186398;19;20621;-78
2023/04/27 16:05:01;;;;;;;5.25;1.75;;;;;;;18.44;33.61;99781.47;12185817;19;20010;-79
2023/04/27 16:09:07;;;;;;;5.20;1.40;;;;;;;18.37;34.18;99772.66;12200575;19;20014;-79
2023/04/27 16:13:12;;;;;;;3.80;1.63;;;;;;;18.40;34.02;99766.50;12160939;19;20019;-79
2023/04/27 16:17:16;;;;;;;6.22;1.52;;;;;;;18.54;34.34;99760.97;12170278;19;20041;-78
2023/04/27 16:21:23;;;;;;;5.95;1.95;;;;;;;18.69;34.37;99757.94;12195430;19;20015;-80
2023/04/27 16:25:26;;;;;;;4.60;1.23;;;;;;;18.86;34.26;99760.19;12190140;19;20214;-79
2023/04/27 16:29:29;;;;;;;4.13;2.08;;;;;;;18.97;33.83;99753.25;12167622;19;20007;-79
2023/04/27 16:33:32;;;;;;;3.53;2.00;;;;;;;18.95;33.79;99752.75;12220692;19;20010;-79
2023/04/27 16:37:35;;;;;;;4.15;2.03;;;;;;;18.89;33.97;99759.56;12151231;19;20010;-78
2023/04/27 16:41:39;;;;;;;4.43;2.25;;;;;;;18.85;33.97;99750.13;12190619;19;20021;-80
2023/04/27 16:45:42;;;;;;;3.60;1.92;;;;;;;18.85;34.29;99750.13;12190904;19;20083;-78
2023/04/27 16:49:46;;;;;;;3.83;1.80;;;;;;;18.81;34.45;99751.91;12173203;19;20011;-79
2023/04/27 16:53:50;;;;;;;5.32;2.00;;;;;;;18.73;34.69;99752.56;12189675;19;20067;-78
2023/04/27 16:57:52;;;;;;;6.37;2.07;;;;;;;18.64;34.79;99755.22;12191118;19;20010;-78
2023/04/27 17:01:54;;;;;;;;;;;;;;;18.53;34.62;99754.56;12173526;19;21612;-79
2023/04/27 17:05:58;;;;;;;3.15;1.92;;;;;;;18.41;34.43;99757.81;12185110;19;20704;-78
2023/04/27 17:10:02;;;;;;;4.18;2.25;;;;;;;18.13;34.90;99756.03;12190308;19;20044;-78
2023/04/27 17:14:05;;;;;;;4.70;1.90;;;;;;;17.97;35.94;99766.56;12170398;19;20043;-79
2023/04/27 17:18:08;;;;;;;5.32;2.17;;;;;;;17.84;36.09;99758.94;12189839;19;20010;-77
2023/04/27 17:22:12;;;;;;;3.53;2.00;;;;;;;17.79;36.23;99753.41;12163998;19;20006;-78
2023/04/27 17:26:18;;;;;;;6.25;2.15;;;;;;;17.76;36.31;99752.06;12190106;19;20007;-78
2023/04/27 17:30:20;;;;;;;4.70;2.15;;;;;;;17.57;36.09;99754.78;12188021;19;20026;-78
2023/04/27 17:34:22;;;;;;;7.93;2.23;;;;;;;17.50;36.76;99748.75;12171157;19;20026;-78
2023/04/27 17:38:25;;;;;;;5.97;1.90;;;;;;;17.42;38.36;99741.03;12200669;19;20006;-77
2023/04/27 17:42:29;;;;;;;3.60;1.55;;;;;;;17.33;39.66;99735.31;12200653;19;20352;-81
2023/04/27 17:46:32;;;;;;;4.50;2.08;;;;;;;17.38;39.61;99740.81;12186876;19;20002;-78
2023/04/27 17:50:36;;;;;;;4.07;1.67;;;;;;;17.28;41.73;99744.56;12203292;19;20006;-78
2023/04/27 17:54:39;;;;;;;2.67;1.60;;;;;;;17.00;43.27;99748.19;12196112;19;20216;-79
2023/04/27 17:58:43;;;;;;;4.00;1.60;;;;;;;16.69;44.30;99739.31;12178781;19;20503;-78
2023/04/27 18:02:48;;;;;;;4.40;1.55;;;;;;;16.38;45.64;99745.09;12203374;19;20010;-78
2023/04/27 18:06:52;;;;;;;4.78;1.85;;;;;;;16.05;47.92;99755.06;12205397;19;20356;-79
2023/04/27 18:10:56;;;;;;;4.50;1.95;;;;;;;15.71;49.62;99739.97;12182724;19;20055;-80
2023/04/27 18:14:59;;;;;;;4.82;1.70;;;;;;;15.41;49.83;99743.69;12204943;19;20014;-80
2023/04/27 18:19:05;;;;;;;4.18;1.88;;;;;;;15.14;50.60;99740.44;12207733;19;20019;-80
2023/04/27 18:23:08;;;;;;;4.28;1.88;;;;;;;14.89;51.79;99733.84;12189710;19;20003;-79
2023/04/27 18:27:11;;;;;;;3.07;1.87;;;;;;;14.64;52.53;99733.88;12208607;19;20082;-79
2023/04/27 18:31:14;;;;;;;;;;;;;;;14.39;52.96;99735.50;12189204;19;20876;-79
2023/04/27 18:35:17;;;;;;;3.83;2.20;;;;;;;14.23;53.41;99736.63;12210703;19;19998;-79
2023/04/27 18:39:20;;;;;;;5.45;2.08;;;;;;;14.06;53.63;99739.63;12204170;19;20046;-79
2023/04/27 18:43:22;;;;;;;;;;;;;;;13.87;54.87;99731.03;12183139;19;20010;-79
2023/04/27 18:47:24;;;;;;;9.05;2.92;;;;;;;13.77;54.85;99731.84;12202474;19;19919;-78
2023/04/27 18:51:27;;;;;;;7.13;3.13;;;;;;;13.67;55.55;99732.63;12209406;19;20010;-80
2023/04/27 18:55:30;;;;;;;4.95;2.92;;;;;;;13.58;56.26;99727.88;12180785;19;20018;-79
2023/04/27 18:59:33;;;;;;;4.87;2.37;;;;;;;13.52;56.89;99724.25;12204710;19;21257;-80
2023/04/27 19:03:35;;;;;;;;;;;;;;;13.45;57.86;99743.91;12210056;19;20076;-79